KAEX

Alexandria International Airport

Alexandria, Louisiana, USA
METAR KAEX 222106Z 30010KT 9SM BKN021 OVC028 17/12 A2993 RMK AO2 T01670122
Observed Flight Rules
Apr-22 @ 21:06 UTC (25 minutes ago) Marginal Visual Flight Rules
Wind Visibility Clouds
300° at 10 knots 9 miles
  • Broken at 2,100' AGL
  • Overcast at 2,800' AGL
Temperatures Readings
Current 17°C / 63°F
Dewpoint 12°C / 54°F
Humidity 73%
Altimeter 29.93" Hg
Pressure 1014 hPa
Elevation 27
METAR KAEX 222106Z 30010KT 9SM BKN021 OVC028 17/12 A2993 RMK AO2 T01670122
Observed Flight Rules
Apr-22 @ 21:06 UTC
(25 minutes ago)
MVFR
Wind Visibility
300° at 10 knots 9 miles
Clouds
  • Broken at 2,100' AGL
  • Overcast at 2,800' AGL
Temperature Dewpoint
17°C / 63°F 12°C / 54°F
Humidity Altimeter Pressure
73% 29.93" Hg 1014 hPa